Main page


Airports :

Cherbourg, France

Cherbourg – Maupertus Airport

latitude: 49-39N, longitude: 001-28W, elevation: 138 m

Current weather observation

The report was made 36 minutes ago, at 17:00 UTC
Wind 10 kt from the North/Northeast
Temperature 6°C
Humidity 61%
Pressure 1029 hPa
Visibility 10 km or more
Few clouds at a height of 3200 ft
Scattered clouds at a height of 3800 ft

METAR: LFRC 201700Z AUTO 03010KT 9999 FEW032 SCT038 06/M01 Q1029 NOSIG

Time: 18:36 (17:36 UTC)


The report was made 3 hours and 36 minutes ago, at 14:00 UTC
Forecast valid from 20 at 15 UTC to 20 at 24 UTC
Wind 15 kt from the North/Northeast with gusts up to 25 kt
Visibility 10 km or more
Broken clouds at a height of 2500 ft
from 20 at 15 UTC to 20 at 18 UTC
Wind 12 kt from the Northeast
from 20 at 18 UTC to 20 at 21 UTC
Wind 3 kt from variable directions

TAF: LFRC 201400Z 2015/2024 03015G25KT 9999 BKN025 BECMG 2015/2018 04012KT BECMG 2018/2021 VRB03KT

Weather observations and forecasts of more than 4000 airports (METAR and TAF reports).

The available stations are represented by yellow and red dots on the map.

Hover mouse over dot to see the name of the station.

Then click to see weather observations and forecasts.

To change the map : click on the green buttons with a black cross to zoom in, on the green button with a dash to zoom out, or on the green arrows for adjacent maps.